createdAt,value
2023-03-02T03:30:24.902Z,98388.59
2023-03-02T04:02:58.498Z,98365.09
2023-03-02T04:09:11.467Z,98395.00
2023-03-02T04:11:53.296Z,98383.41
2023-03-02T04:17:29.877Z,98376.72
2023-03-02T04:19:58.099Z,98387.75
2023-03-02T04:22:30.441Z,98385.91
2023-03-02T04:25:13.721Z,98385.91
2023-03-02T04:30:56.660Z,98388.75
2023-03-02T04:33:24.891Z,98385.28
2023-03-02T04:36:01.645Z,98399.34
2023-03-02T04:38:32.816Z,98402.38
2023-03-02T04:41:02.258Z,98414.59
2023-03-02T04:46:20.204Z,98433.72
2023-03-02T04:48:54.612Z,98432.91
2023-03-02T04:51:27.049Z,98432.91
2023-03-02T04:58:14.536Z,98448.03
2023-03-02T05:00:53.297Z,98440.72
2023-03-02T05:06:38.842Z,98462.25
2023-03-02T05:09:08.969Z,98469.19
2023-03-02T05:11:36.804Z,98465.72
2023-03-02T05:17:17.951Z,98469.38
2023-03-02T05:19:46.249Z,98482.59
2023-03-02T05:22:44.229Z,98469.19
2023-03-02T05:25:24.702Z,98484.88
2023-03-02T05:48:04.962Z,98487.88
2023-03-02T05:50:36.596Z,98490.78
2023-03-02T05:56:18.342Z,98490.81
2023-03-02T06:02:09.102Z,98492.97
2023-03-02T06:04:44.254Z,98497.88
2023-03-02T06:07:20.204Z,98497.09
2023-03-02T06:09:48.986Z,98499.53
2023-03-02T06:12:18.930Z,98510.13
2023-03-02T06:23:13.025Z,98536.19
2023-03-02T06:25:49.102Z,98515.63
2023-03-02T06:28:22.496Z,98505.44
2023-03-02T06:30:55.711Z,98498.75
2023-03-02T06:33:24.413Z,98496.41
2023-03-02T06:35:51.989Z,98492.56
2023-03-02T06:38:26.077Z,98490.16
2023-03-02T06:40:56.413Z,98481.22
2023-03-02T06:43:26.634Z,98480.66
2023-03-02T06:45:55.621Z,98482.72
2023-03-02T06:48:24.930Z,98472.53
2023-03-02T06:50:52.950Z,98470.09
2023-03-02T06:53:26.085Z,98465.63
2023-03-02T06:55:54.902Z,98463.19
2023-03-02T06:58:24.262Z,98452.75
2023-03-02T07:00:52.240Z,98454.59
2023-03-02T07:03:22.672Z,98453.38
2023-03-02T07:05:52.196Z,98451.97
2023-03-02T07:08:19.885Z,98460.75
2023-03-02T07:10:47.335Z,98455.63
2023-03-02T07:13:14.812Z,98454.41
2023-03-02T07:15:42.564Z,98450.09
2023-03-02T07:18:10.415Z,98458.91
2023-03-02T07:20:40.511Z,98463.38
2023-03-02T07:23:07.870Z,98455.81
2023-03-02T07:25:38.737Z,98459.06
2023-03-02T07:28:08.948Z,98461.75
2023-03-02T07:30:36.658Z,98469.09
2023-03-02T07:33:04.075Z,98462.56
2023-03-02T07:35:32.062Z,98466.22
2023-03-02T07:37:59.457Z,98462.13
2023-03-02T07:40:27.789Z,98470.13
2023-03-02T07:42:55.014Z,98455.81
2023-03-02T07:45:25.736Z,98465.63
2023-03-02T07:47:53.129Z,98476.66
2023-03-02T07:50:23.062Z,98474.41
2023-03-02T07:52:50.813Z,98464.81
2023-03-02T07:55:18.885Z,98467.69
2023-03-02T07:57:50.141Z,98479.13
2023-03-02T08:00:19.266Z,98482.59
2023-03-02T08:02:47.816Z,98471.97
2023-03-02T08:05:21.010Z,98461.94
2023-03-02T08:07:51.753Z,98470.53
2023-03-02T08:10:22.971Z,98452.34
2023-03-02T08:12:54.590Z,98452.75
2023-03-02T08:15:25.270Z,98460.13
2023-03-02T08:17:55.156Z,98479.13
2023-03-02T08:20:27.250Z,98456.63
2023-03-02T08:23:03.211Z,98440.47
2023-03-02T08:25:34.694Z,98435.56
2023-03-02T08:28:02.063Z,98460.31
2023-03-02T08:30:32.525Z,98450.06
2023-03-02T08:33:06.678Z,98435.13
2023-03-02T08:38:52.078Z,98457.22
2023-03-02T08:41:51.651Z,98465.19
2023-03-02T08:44:48.506Z,98449.22
2023-03-02T08:50:14.621Z,98454.34
2023-03-02T09:02:44.346Z,98474.09
2023-03-02T09:16:26.720Z,98469.59
2023-03-02T09:18:56.940Z,98436.44
2023-03-02T09:24:40.334Z,98427.94
2023-03-02T09:27:10.956Z,98436.31
2023-03-02T09:29:41.279Z,98426.31
2023-03-02T09:47:08.692Z,98416.78
2023-03-02T09:50:17.756Z,98389.28
2023-03-02T10:03:16.262Z,98396.25
2023-03-02T10:09:02.687Z,98394.59
2023-03-02T10:12:03.891Z,98375.69
2023-03-02T10:14:48.955Z,98367.88
2023-03-02T10:17:31.417Z,98362.47
2023-03-02T10:20:07.812Z,98357.81
2023-03-02T10:22:44.659Z,98366.63
2023-03-02T10:25:21.977Z,98351.53
2023-03-02T10:28:03.377Z,98356.09
2023-03-02T10:30:37.651Z,98340.72
2023-03-02T10:33:19.012Z,98339.22
2023-03-02T10:36:14.308Z,98342.28
2023-03-02T10:38:47.763Z,98336.94
2023-03-02T10:41:21.074Z,98325.63
2023-03-02T10:43:51.934Z,98330.06
2023-03-02T10:46:19.174Z,98344.06
2023-03-02T10:48:59.276Z,98328.56
2023-03-02T10:51:33.053Z,98327.84
2023-03-02T10:54:06.134Z,98327.19
2023-03-02T10:56:34.504Z,98321.88
2023-03-02T10:59:43.860Z,98314.69
2023-03-02T11:02:26.056Z,98316.75
2023-03-02T11:05:19.646Z,98314.88
2023-03-02T11:08:19.148Z,98296.84
2023-03-02T11:10:59.998Z,98297.34
2023-03-02T11:13:39.522Z,98287.16
2023-03-02T11:16:32.693Z,98297.44
2023-03-02T11:19:21.880Z,98288.25
2023-03-02T11:29:04.642Z,98259.94
2023-03-02T11:32:26.526Z,98263.13
2023-03-02T11:34:58.483Z,98259.28
2023-03-02T11:37:49.477Z,98245.38
2023-03-02T11:40:33.971Z,98237.69
2023-03-02T11:50:50.856Z,98232.59
2023-03-02T12:00:48.690Z,98216.59
2023-03-02T12:10:08.900Z,98234.06
2023-03-02T12:12:37.494Z,98232.53
2023-03-02T12:15:34.288Z,98227.72
2023-03-02T12:18:20.308Z,98216.16
2023-03-02T12:21:22.061Z,98215.88
2023-03-02T12:23:52.610Z,98214.91
2023-03-02T12:26:42.037Z,98215.28
2023-03-02T12:29:18.577Z,98191.44
2023-03-02T12:31:59.321Z,98200.19
2023-03-02T12:34:42.113Z,98195.66
2023-03-02T12:37:43.958Z,98190.19
2023-03-02T12:40:31.886Z,98197.66
2023-03-02T12:43:18.773Z,98213.06
2023-03-02T12:49:54.573Z,98189.31
2023-03-02T12:52:39.025Z,98169.88
2023-03-02T12:55:25.934Z,98155.16
2023-03-02T12:58:08.964Z,98161.66
2023-03-02T13:01:13.768Z,98158.91
2023-03-02T13:06:34.056Z,98135.94
2023-03-02T13:09:13.910Z,98140.28
2023-03-02T13:11:56.994Z,98128.84
2023-03-02T13:14:29.214Z,98130.38
2023-03-02T13:17:25.900Z,98128.53
2023-03-02T13:20:01.888Z,98131.38
2023-03-02T13:22:32.123Z,98102.91
2023-03-02T13:25:09.404Z,98117.91
2023-03-02T13:27:42.976Z,98109.50
2023-03-02T13:30:12.730Z,98125.03
2023-03-02T13:32:42.528Z,98106.28
2023-03-02T13:38:26.145Z,98087.25
2023-03-02T13:41:02.247Z,98082.13
2023-03-02T13:43:39.092Z,98129.25
2023-03-02T13:46:15.171Z,98097.38
2023-03-02T13:55:01.028Z,98063.81
2023-03-02T13:57:40.068Z,98065.28
2023-03-02T14:01:09.042Z,98058.78
2023-03-02T14:03:40.236Z,98039.63
2023-03-02T14:06:14.593Z,98023.50
2023-03-02T14:08:48.319Z,98026.41
2023-03-02T14:11:18.761Z,98025.81
2023-03-02T14:13:55.515Z,98022.56
2023-03-02T14:16:24.611Z,98022.41
2023-03-02T14:19:05.583Z,98028.75
2023-03-02T14:21:36.578Z,98004.81
2023-03-02T14:24:04.186Z,98019.75
2023-03-02T14:26:39.306Z,98008.88
2023-03-02T14:29:25.664Z,98001.72
2023-03-02T14:31:57.924Z,97992.72
2023-03-02T14:34:27.993Z,97990.88
2023-03-02T14:36:58.927Z,98003.13
2023-03-02T14:39:55.297Z,97993.31
2023-03-02T14:42:40.450Z,97997.81
2023-03-02T14:45:11.760Z,97977.78
2023-03-02T14:47:51.435Z,97978.47
2023-03-02T14:50:27.059Z,97984.00
2023-03-02T14:52:58.508Z,97980.94
2023-03-02T14:55:34.261Z,97973.84
2023-03-02T14:58:11.015Z,97966.75
2023-03-02T15:00:46.439Z,97950.88
2023-03-02T15:03:19.662Z,97982.56
2023-03-02T15:06:00.923Z,97945.34
2023-03-02T15:08:32.581Z,97940.63
2023-03-02T15:11:06.726Z,97945.94
2023-03-02T15:13:35.797Z,97950.66
2023-03-02T15:16:04.264Z,97951.69
2023-03-02T15:18:33.405Z,97940.47
2023-03-02T15:21:09.622Z,97935.59
2023-03-02T15:23:43.864Z,97936.84
2023-03-02T15:26:27.252Z,97945.66
2023-03-02T15:29:05.667Z,97952.22
2023-03-02T15:31:36.011Z,97947.31
2023-03-02T15:34:07.194Z,97946.50
2023-03-02T15:36:37.726Z,97952.63
2023-03-02T15:39:33.096Z,97948.94
2023-03-02T15:43:17.079Z,97934.44
2023-03-02T15:46:16.118Z,97934.19
2023-03-02T15:49:32.993Z,97939.28
2023-03-02T15:56:10.217Z,97931.25
2023-03-02T16:05:03.680Z,97933.25
2023-03-02T16:10:39.450Z,97942.03
2023-03-02T16:13:18.329Z,97936.94
2023-03-02T16:15:59.836Z,97932.22
2023-03-02T16:18:29.700Z,97930.16
2023-03-02T16:21:07.391Z,97940.19
2023-03-02T16:23:46.489Z,97939.97
2023-03-02T16:26:16.233Z,97939.97
2023-03-02T16:28:45.739Z,97924.03
2023-03-02T16:31:15.336Z,97934.19
2023-03-02T16:33:50.522Z,97931.31
2023-03-02T16:36:21.426Z,97925.19
2023-03-02T16:39:09.577Z,97921.50
2023-03-02T16:41:44.510Z,97923.34
2023-03-02T16:44:17.684Z,97924.38
2023-03-02T16:46:57.357Z,97927.03
2023-03-02T16:49:30.603Z,97915.38
2023-03-02T16:52:01.120Z,97918.63
2023-03-02T17:00:03.971Z,97900.19
2023-03-02T17:02:33.923Z,97914.50
2023-03-02T17:05:01.230Z,97900.38
2023-03-02T17:07:30.670Z,97889.75
2023-03-02T17:10:00.458Z,97908.34
2023-03-02T17:12:32.211Z,97894.03
2023-03-02T17:15:00.046Z,97917.75
2023-03-02T17:17:38.400Z,97908.97
2023-03-02T17:20:07.726Z,97902.63
2023-03-02T17:22:46.310Z,97909.78
2023-03-02T17:25:22.678Z,97896.28
2023-03-02T17:28:05.471Z,97877.66
2023-03-02T17:30:40.240Z,97887.25
2023-03-02T17:33:07.719Z,97891.53
2023-03-02T17:35:41.518Z,97899.53
2023-03-02T17:38:17.775Z,97901.72
2023-03-02T17:40:57.160Z,97890.88
2023-03-02T17:43:52.987Z,97874.69
2023-03-02T17:46:23.548Z,97894.94
2023-03-02T17:48:55.384Z,97886.97
2023-03-02T17:51:23.026Z,97895.53
2023-03-02T17:53:53.770Z,97901.19
2023-03-02T17:56:29.202Z,97893.22
2023-03-02T17:59:09.683Z,97880.50
2023-03-02T18:01:37.380Z,97890.47
2023-03-02T18:04:06.583Z,97889.22
2023-03-02T18:06:40.101Z,97888.78
2023-03-02T18:09:15.123Z,97898.16
2023-03-02T18:12:08.936Z,97898.75
2023-03-02T18:14:40.029Z,97893.56
2023-03-02T18:17:11.023Z,97898.00
2023-03-02T18:19:44.562Z,97904.94
2023-03-02T18:22:21.738Z,97894.50
2023-03-02T18:24:53.084Z,97899.84
2023-03-02T18:27:23.609Z,97890.59
2023-03-02T18:29:59.496Z,97878.69
2023-03-02T18:32:29.492Z,97883.19
2023-03-02T18:34:58.373Z,97891.75
2023-03-02T18:37:35.703Z,97879.84
2023-03-02T18:43:31.547Z,97884.31
2023-03-02T18:49:17.661Z,97884.06
2023-03-02T18:52:24.274Z,97887.31
2023-03-02T19:01:43.389Z,97879.47
2023-03-02T19:04:23.526Z,97872.06
2023-03-02T19:07:14.935Z,97875.31
2023-03-02T19:27:58.638Z,97864.59
2023-03-02T19:30:35.074Z,97860.91
2023-03-02T19:33:28.155Z,97850.03
2023-03-02T19:35:58.756Z,97851.63
2023-03-02T19:38:53.986Z,97849.56
2023-03-02T19:41:47.770Z,97854.88
2023-03-02T19:45:42.220Z,97854.88
2023-03-02T19:47:22.023Z,97848.75
2023-03-02T19:53:13.256Z,97840.75
2023-03-02T19:55:54.640Z,97848.50
2023-03-02T20:01:34.239Z,97845.38
2023-03-02T20:04:07.392Z,97843.31
2023-03-02T20:06:48.128Z,97839.38
2023-03-02T20:09:28.815Z,97834.84
2023-03-02T20:12:04.656Z,97829.53
2023-03-02T20:14:36.294Z,97828.72
2023-03-02T20:17:09.438Z,97827.09
2023-03-02T20:19:47.348Z,97823.41
2023-03-02T20:22:18.584Z,97828.50
2023-03-02T20:27:42.140Z,97820.28
2023-03-02T20:30:14.324Z,97813.09
2023-03-02T20:32:48.372Z,97814.94
2023-03-02T20:35:19.596Z,97809.84
2023-03-02T20:37:53.896Z,97815.19
2023-03-02T20:40:28.244Z,97794.91
2023-03-02T20:43:01.982Z,97789.59
2023-03-02T20:45:31.274Z,97795.72
2023-03-02T20:48:25.355Z,97803.72
2023-03-02T20:51:00.109Z,97797.13
2023-03-02T20:53:53.322Z,97801.41
2023-03-02T20:56:33.152Z,97794.78
2023-03-02T20:59:03.408Z,97795.59
2023-03-02T21:01:34.077Z,97791.09
2023-03-02T21:04:07.228Z,97788.19
2023-03-02T21:06:52.443Z,97793.31
2023-03-02T21:09:22.642Z,97792.03
2023-03-02T21:15:06.045Z,97779.78
2023-03-02T21:17:40.362Z,97776.06
2023-03-02T21:20:12.426Z,97775.25
2023-03-02T21:22:46.246Z,97767.50
2023-03-02T21:25:17.284Z,97772.22
2023-03-02T21:27:48.220Z,97770.25
2023-03-02T21:30:27.346Z,97766.66
2023-03-02T21:33:24.125Z,97772.13
2023-03-02T21:35:54.725Z,97766.34
2023-03-02T21:38:22.762Z,97777.88
2023-03-02T21:40:59.741Z,97766.31
2023-03-02T21:43:29.533Z,97759.25
2023-03-02T21:46:03.916Z,97767.94
2023-03-02T21:48:33.670Z,97757.16
2023-03-02T21:53:46.565Z,97751.13
2023-03-02T21:57:05.996Z,97748.09
2023-03-02T21:59:36.667Z,97752.25
2023-03-02T22:02:11.428Z,97759.22
2023-03-02T22:04:41.142Z,97756.09
2023-03-02T22:07:18.221Z,97755.41
2023-03-02T22:10:08.685Z,97750.22
2023-03-02T22:12:43.339Z,97755.31
2023-03-02T22:20:51.122Z,97745.13
2023-03-02T22:23:23.302Z,97730.41
2023-03-02T22:26:03.212Z,97728.22
2023-03-02T22:28:34.617Z,97734.81
2023-03-02T22:31:05.431Z,97718.50
2023-03-02T22:33:50.688Z,97710.75
2023-03-02T22:36:27.931Z,97715.72
2023-03-02T22:39:05.260Z,97712.25
2023-03-02T22:41:35.138Z,97715.94
2023-03-02T22:44:20.982Z,97707.38
2023-03-02T22:46:51.297Z,97717.00
2023-03-02T22:49:18.338Z,97710.84
2023-03-02T22:51:57.248Z,97721.50
2023-03-02T22:57:34.338Z,97714.56
2023-03-02T23:00:05.988Z,97720.44
2023-03-02T23:02:37.450Z,97712.00
2023-03-02T23:05:30.594Z,97708.09
2023-03-02T23:08:24.473Z,97707.97
2023-03-02T23:16:37.041Z,97695.63
2023-03-02T23:19:16.130Z,97686.13
2023-03-02T23:22:00.007Z,97686.22
2023-03-02T23:24:39.949Z,97682.06
2023-03-02T23:27:30.968Z,97677.91
2023-03-02T23:30:31.412Z,97663.09
2023-03-02T23:32:58.765Z,97666.91
2023-03-02T23:35:26.598Z,97670.72
2023-03-02T23:38:02.800Z,97670.00
2023-03-02T23:40:44.950Z,97666.06
2023-03-02T23:43:12.545Z,97657.38
2023-03-02T23:45:42.953Z,97657.72
2023-03-02T23:48:10.017Z,97654.03
2023-03-02T23:50:37.148Z,97657.72
2023-03-02T23:53:05.226Z,97640.34
2023-03-02T23:55:33.731Z,97633.16
2023-03-02T23:58:03.400Z,97643.00
